Time;durP1;ratioP1;P1;durP2;ratioP2;P2;SDS_P1;SDS_P2;PMS_P1;PMS_P2;Temp;Humidity;BMP_temperature;BMP_pressure;BME280_temperature;BME280_humidity;BME280_pressure;Samples;Min_cycle;Max_cycle;Signal;HPM_P1;HPM_P2
2022/10/12 00:01:21;;;;;;;3.03;2.10;;;;;;;4.63;100.00;100608.25;1772277;79;20989;-83
2022/10/12 00:03:48;;;;;;;1.90;1.77;;;;;;;4.63;100.00;100606.91;1778292;80;21024;-82
2022/10/12 00:06:18;;;;;;;5.07;2.00;;;;;;;4.64;100.00;100604.12;1777117;81;21021;-84
2022/10/12 00:08:48;;;;;;;3.07;2.07;;;;;;;4.64;100.00;100596.55;1777306;81;21028;-82
2022/10/12 00:11:22;;;;;;;6.00;2.40;;;;;;;4.61;100.00;100604.84;1777073;80;21064;-82
2022/10/12 00:13:49;;;;;;;4.30;1.80;;;;;;;4.56;100.00;100611.39;1709994;82;21024;-83
2022/10/12 00:16:18;;;;;;;4.27;2.03;;;;;;;4.52;100.00;100609.92;1709459;84;21036;-83
2022/10/12 00:18:51;;;;;;;3.87;1.87;;;;;;;4.49;100.00;100610.16;1709745;83;21127;-82
2022/10/12 00:21:19;;;;;;;2.85;2.05;;;;;;;4.45;100.00;100606.51;1710032;84;21001;-83
2022/10/12 00:23:45;;;;;;;2.53;1.83;;;;;;;4.40;100.00;100603.33;1709964;84;21490;-82
2022/10/12 00:26:16;;;;;;;4.63;2.10;;;;;;;4.36;100.00;100614.77;1709323;84;21028;-83
2022/10/12 00:28:43;;;;;;;3.70;1.60;;;;;;;4.35;100.00;100614.38;1652797;86;21093;-83
2022/10/12 00:31:15;;;;;;;3.20;1.93;;;;;;;4.35;100.00;100610.36;1652402;87;21114;-83
2022/10/12 00:33:43;;;;;;;4.23;1.87;;;;;;;4.33;100.00;100614.49;1546825;91;21071;-83
2022/10/12 00:36:17;;;;;;;2.73;1.70;;;;;;;4.33;100.00;100614.49;1546987;91;21102;-83
2022/10/12 00:38:44;;;;;;;3.03;1.80;;;;;;;4.32;100.00;100608.78;1560356;91;21070;-83
2022/10/12 00:41:11;;;;;;;3.70;2.27;;;;;;;4.32;100.00;100615.48;1567526;92;21172;-83
2022/10/12 00:43:40;;;;;;;5.20;2.03;;;;;;;4.31;100.00;100615.59;1545962;92;21049;-83
2022/10/12 00:46:38;;;;;;;2.97;1.37;;;;;;;4.30;100.00;100612.53;1565726;92;21115;-84
2022/10/12 00:49:23;;;;;;;4.80;2.00;;;;;;;4.28;100.00;100613.98;1539683;93;21154;-84
2022/10/12 00:51:54;;;;;;;2.97;1.77;;;;;;;4.26;100.00;100612.41;1539848;93;21099;-84
2022/10/12 00:54:25;;;;;;;4.17;2.40;;;;;;;4.23;100.00;100615.31;1536373;92;21656;-83
2022/10/12 00:56:53;;;;;;;3.67;2.07;;;;;;;4.17;100.00;100614.80;1557259;90;21732;-83
2022/10/12 00:59:23;;;;;;;4.50;2.40;;;;;;;4.12;100.00;100615.63;1564480;92;21071;-82
2022/10/12 01:01:50;;;;;;;5.03;2.63;;;;;;;4.08;100.00;100613.31;1545741;92;21179;-83
2022/10/12 01:04:17;;;;;;;4.13;2.00;;;;;;;4.02;100.00;100607.95;1539134;93;21096;-82
2022/10/12 01:06:44;;;;;;;3.97;2.33;;;;;;;3.99;100.00;100611.69;1539325;93;21604;-83
2022/10/12 01:09:11;;;;;;;4.10;2.00;;;;;;;3.97;100.00;100606.09;1538848;93;21578;-84
2022/10/12 01:11:38;;;;;;;4.80;2.30;;;;;;;3.94;100.00;100604.98;1599889;89;21070;-83
2022/10/12 01:14:05;;;;;;;4.93;2.17;;;;;;;3.95;100.00;100608.88;1604935;89;21198;-84
2022/10/12 01:16:56;;;;;;;7.57;2.60;;;;;;;3.93;100.00;100601.45;1604976;89;21144;-83
2022/10/12 01:20:03;;;;;;;5.97;3.13;;;;;;;3.92;100.00;100602.91;1605208;89;21619;-83
2022/10/12 01:22:33;;;;;;;4.20;2.00;;;;;;;3.89;100.00;100601.79;1602986;89;21031;-83
2022/10/12 01:25:23;;;;;;;4.20;2.30;;;;;;;3.87;100.00;100609.92;1604268;89;21532;-83
2022/10/12 01:27:57;;;;;;;5.23;2.20;;;;;;;3.86;100.00;100608.23;1521758;94;21112;-83
2022/10/12 01:30:25;;;;;;;;;;;;;;;3.84;100.00;100603.95;1568995;90;21157;-83
2022/10/12 01:33:15;;;;;;;5.53;2.40;;;;;;;3.82;100.00;100600.05;1558229;92;20148;-83
2022/10/12 01:36:09;;;;;;;3.97;2.60;;;;;;;3.80;100.00;100601.49;1555793;92;21118;-83
2022/10/12 01:38:44;;;;;;;6.28;3.05;;;;;;;3.77;100.00;100601.74;1555977;92;21154;-83
2022/10/12 01:41:19;;;;;;;5.47;2.50;;;;;;;3.74;100.00;100601.96;1556171;92;21051;-84
2022/10/12 01:43:46;;;;;;;7.07;2.83;;;;;;;3.71;100.00;100604.86;1609331;88;21069;-83
2022/10/12 01:46:21;;;;;;;6.37;2.53;;;;;;;3.70;100.00;100600.95;1636255;86;21042;-82
2022/10/12 01:48:50;;;;;;;7.27;2.57;;;;;;;3.69;100.00;100604.12;1635471;88;21038;-83
2022/10/12 01:51:30;;;;;;;4.90;2.80;;;;;;;3.69;100.00;100601.45;1634786;88;21010;-82
2022/10/12 01:54:23;;;;;;;4.47;2.37;;;;;;;3.70;100.00;100597.81;1634123;88;21070;-82
2022/10/12 01:57:03;;;;;;;7.78;2.62;;;;;;;3.72;100.00;100601.23;1634976;88;21065;-84
2022/10/12 01:59:59;;;;;;;5.53;2.60;;;;;;;3.72;100.00;100594.54;1635209;86;21061;-83
2022/10/12 02:03:03;;;;;;;7.43;3.07;;;;;;;3.75;100.00;100597.45;1633573;88;21058;-84
2022/10/12 02:05:53;;;;;;;7.13;2.73;;;;;;;3.74;100.00;100592.60;1633879;88;21030;-83
2022/10/12 02:08:31;;;;;;;5.83;2.90;;;;;;;3.73;100.00;100589.54;1633599;88;21109;-82
2022/10/12 02:11:08;;;;;;;7.07;2.90;;;;;;;3.73;100.00;100587.36;1633972;87;21053;-83
2022/10/12 02:13:41;;;;;;;6.90;2.53;;;;;;;3.69;100.00;100594.76;1633498;88;21542;-84
2022/10/12 02:16:13;;;;;;;8.67;3.00;;;;;;;3.66;100.00;100593.64;1654060;83;21024;-84
2022/10/12 02:18:47;;;;;;;4.03;2.55;;;;;;;3.63;100.00;100593.89;1754428;82;21034;-83
2022/10/12 02:21:17;;;;;;;6.50;2.72;;;;;;;3.59;100.00;100589.25;1755723;82;21022;-83
2022/10/12 02:23:45;;;;;;;6.87;2.67;;;;;;;3.57;100.00;100598.33;1755468;82;21061;-82
2022/10/12 02:26:13;;;;;;;10.57;3.30;;;;;;;3.53;100.00;100593.69;1755553;82;20997;-81
2022/10/12 02:28:40;;;;;;;7.30;3.27;;;;;;;3.52;100.00;100597.81;1755400;82;21045;-83
2022/10/12 02:31:12;;;;;;;13.37;3.90;;;;;;;3.50;100.00;100589.05;1755757;81;20998;-83
2022/10/12 02:34:02;;;;;;;11.80;3.90;;;;;;;3.49;100.00;100594.02;1755412;82;21029;-83
2022/10/12 02:36:37;;;;;;;17.73;4.60;;;;;;;3.48;100.00;100590.50;1658013;86;21041;-82
2022/10/12 02:39:20;;;;;;;18.17;4.70;;;;;;;3.46;100.00;100588.91;1649164;86;21093;-83
2022/10/12 02:41:49;;;;;;;15.63;4.97;;;;;;;3.40;100.00;100593.74;1644684;85;21143;-83
2022/10/12 02:44:26;;;;;;;12.13;4.67;;;;;;;3.34;100.00;100586.15;1644780;87;21029;-83
2022/10/12 02:46:55;;;;;;;16.63;4.73;;;;;;;3.26;100.00;100590.34;1614373;89;21122;-83
2022/10/12 02:49:22;;;;;;;15.90;5.13;;;;;;;3.19;100.00;100590.80;1593125;89;21043;-82
2022/10/12 02:51:48;;;;;;;16.57;5.30;;;;;;;3.15;100.00;100583.97;1614498;89;21074;-83
2022/10/12 02:54:16;;;;;;;19.47;5.93;;;;;;;3.13;100.00;100587.21;1621227;85;21134;-84
2022/10/12 02:56:44;;;;;;;14.83;5.17;;;;;;;3.07;100.00;100579.64;1640713;87;21027;-83
2022/10/12 02:59:14;;;;;;;17.40;5.37;;;;;;;3.01;100.00;100578.73;1640345;87;21016;-83
2022/10/12 03:01:42;;;;;;;18.30;5.50;;;;;;;2.95;100.00;100578.69;1579913;91;21096;-82
2022/10/12 03:04:09;;;;;;;20.47;6.17;;;;;;;2.92;100.00;100572.71;1580116;91;21061;-83
2022/10/12 03:06:36;;;;;;;18.27;5.87;;;;;;;2.88;100.00;100577.42;1559681;91;21510;-83
2022/10/12 03:09:04;;;;;;;17.57;5.90;;;;;;;2.86;100.00;100576.68;1579794;91;21049;-82
2022/10/12 03:11:32;;;;;;;17.63;6.33;;;;;;;2.82;100.00;100570.70;1580087;91;21084;-82
2022/10/12 03:14:00;;;;;;;17.23;5.93;;;;;;;2.80;100.00;100572.63;1579779;91;21061;-84
2022/10/12 03:16:26;;;;;;;23.93;7.00;;;;;;;2.79;100.00;100566.05;1579816;91;21554;-83
2022/10/12 03:18:53;;;;;;;17.37;6.07;;;;;;;2.78;100.00;100568.34;1579785;91;21060;-84
2022/10/12 03:21:20;;;;;;;18.10;6.73;;;;;;;2.78;100.00;100577.23;1579917;91;21135;-83
2022/10/12 03:23:47;;;;;;;23.40;6.33;;;;;;;2.77;100.00;100572.00;1580074;91;21098;-83
2022/10/12 03:26:13;;;;;;;18.67;5.60;;;;;;;2.73;100.00;100565.17;1580035;91;21132;-85
2022/10/12 03:28:40;;;;;;;13.80;5.13;;;;;;;2.71;100.00;100565.27;1579934;91;21086;-83
2022/10/12 03:31:07;;;;;;;18.07;5.53;;;;;;;2.69;100.00;100561.83;1578832;89;21062;-83
2022/10/12 03:33:34;;;;;;;23.53;6.20;;;;;;;2.67;100.00;100558.42;1615469;89;21067;-83
2022/10/12 03:36:01;;;;;;;20.07;5.77;;;;;;;2.66;100.00;100555.39;1615364;89;21153;-83
2022/10/12 03:38:28;;;;;;;18.43;6.43;;;;;;;2.63;100.00;100552.44;1616755;88;21086;-84
2022/10/12 03:40:56;;;;;;;26.33;6.50;;;;;;;2.64;100.00;100549.31;1621381;88;21118;-82
2022/10/12 03:43:24;;;;;;;22.17;7.50;;;;;;;2.64;100.00;100549.31;1658183;84;21121;-84
2022/10/12 03:45:51;;;;;;;21.33;6.97;;;;;;;2.63;100.00;100548.44;1703720;84;21496;-85
2022/10/12 03:48:18;;;;;;;23.93;7.77;;;;;;;2.61;100.00;100554.36;1703680;84;21095;-84
2022/10/12 03:50:49;;;;;;;25.47;8.07;;;;;;;2.61;100.00;100557.04;1703588;84;21060;-83
2022/10/12 03:53:16;;;;;;;22.53;8.03;;;;;;;2.58;100.00;100555.06;1703694;84;21100;-84
2022/10/12 03:55:43;;;;;;;23.90;7.83;;;;;;;2.54;100.00;100548.23;1703250;84;21003;-82
2022/10/12 03:58:10;;;;;;;18.93;7.40;;;;;;;2.48;100.00;100544.19;1741240;80;21105;-83
2022/10/12 04:00:38;;;;;;;25.17;7.93;;;;;;;2.45;100.00;100537.72;1802421;80;21029;-83
2022/10/12 04:03:04;;;;;;;23.53;7.97;;;;;;;2.42;100.00;100537.92;1802524;80;21068;-84
2022/10/12 04:05:31;;;;;;;19.30;7.70;;;;;;;2.40;100.00;100542.52;1802524;80;20973;-82
2022/10/12 04:07:58;;;;;;;24.13;7.03;;;;;;;2.39;100.00;100536.80;1802240;80;21085;-83
2022/10/12 04:10:25;;;;;;;24.90;8.23;;;;;;;2.35;100.00;100533.97;1802582;80;21101;-83
2022/10/12 04:12:53;;;;;;;26.70;8.17;;;;;;;2.35;100.00;100531.30;1802349;80;21087;-83
2022/10/12 04:15:20;;;;;;;27.87;8.30;;;;;;;2.35;100.00;100526.81;1802580;80;21512;-83
2022/10/12 04:17:47;;;;;;;24.40;8.63;;;;;;;2.37;100.00;100529.38;1802578;80;21488;-82
2022/10/12 04:20:14;;;;;;;23.73;8.57;;;;;;;2.39;100.00;100527.45;1802709;80;21001;-83
2022/10/12 04:22:42;;;;;;;28.67;8.83;;;;;;;2.41;100.00;100526.89;1802868;80;21017;-82
2022/10/12 04:25:10;;;;;;;23.47;7.63;;;;;;;2.42;100.00;100523.24;1805359;78;21033;-83
2022/10/12 04:27:37;;;;;;;26.87;8.00;;;;;;;2.44;100.00;100518.19;1804811;80;21069;-82
2022/10/12 04:30:05;;;;;;;23.10;7.67;;;;;;;2.46;100.00;100527.40;1803194;80;21005;-82
2022/10/12 04:32:31;;;;;;;19.27;7.03;;;;;;;2.45;100.00;100521.22;1802496;80;21061;-83
2022/10/12 04:34:58;;;;;;;18.40;6.47;;;;;;;2.45;100.00;100523.88;1802777;80;21013;-84
2022/10/12 04:37:26;;;;;;;22.20;6.70;;;;;;;2.48;100.00;100522.83;1803159;80;21013;-82
2022/10/12 04:39:53;;;;;;;21.33;6.30;;;;;;;2.52;100.00;100522.14;1790175;80;21014;-83
2022/10/12 04:42:20;;;;;;;15.87;6.27;;;;;;;2.58;100.00;100521.69;1785936;80;20998;-82
2022/10/12 04:44:47;;;;;;;13.97;5.80;;;;;;;2.66;100.00;100514.00;1786167;80;21070;-84
2022/10/12 04:47:14;;;;;;;14.67;4.77;;;;;;;2.76;100.00;100516.86;1786588;80;21050;-85
2022/10/12 04:49:40;;;;;;;13.80;4.70;;;;;;;2.89;100.00;100515.52;1786747;80;20986;-82
2022/10/12 04:52:07;;;;;;;11.87;4.63;;;;;;;3.05;100.00;100508.10;1786369;80;20974;-84
2022/10/12 04:54:35;;;;;;;9.80;3.80;;;;;;;3.19;100.00;100509.28;1762716;80;20986;-83
2022/10/12 04:57:03;;;;;;;7.93;3.83;;;;;;;3.31;100.00;100514.22;1785867;80;21547;-78
2022/10/12 04:59:31;;;;;;;12.70;4.10;;;;;;;3.38;100.00;100520.83;1785137;80;21115;-80
2022/10/12 05:01:58;;;;;;;26.27;13.47;;;;;;;3.42;100.00;100521.45;1784731;80;21089;-75
2022/10/12 05:04:25;;;;;;;29.10;14.47;;;;;;;3.45;100.00;100524.37;1785288;80;21041;-77
2022/10/12 05:06:51;;;;;;;63.40;32.77;;;;;;;3.48;100.00;100523.66;1785280;80;21037;-78
2022/10/12 05:09:20;;;;;;;175.10;94.53;;;;;;;3.51;100.00;100523.44;1756399;80;21021;-76
2022/10/12 05:11:46;;;;;;;151.83;75.20;;;;;;;3.56;100.00;100522.61;1754553;82;21010;-78
2022/10/12 05:14:14;;;;;;;64.97;35.97;;;;;;;3.63;100.00;100530.16;1779729;80;20978;-84
2022/10/12 05:16:42;;;;;;;40.90;24.37;;;;;;;3.69;100.00;100527.05;1777824;80;21112;-79
2022/10/12 05:19:09;;;;;;;29.57;14.17;;;;;;;3.75;100.00;100531.46;1777009;80;20987;-82
2022/10/12 05:21:39;;;;;;;33.13;16.50;;;;;;;3.82;100.00;100530.48;1809654;79;21010;-80
2022/10/12 05:24:06;;;;;;;45.60;22.80;;;;;;;3.92;100.00;100536.86;1810933;79;21038;-79
2022/10/12 05:26:33;;;;;;;45.60;22.47;;;;;;;4.03;100.00;100537.38;1811112;79;21046;-80
2022/10/12 05:29:00;;;;;;;26.27;11.10;;;;;;;4.14;100.00;100536.09;1810320;79;21011;-81
2022/10/12 05:31:27;;;;;;;19.80;8.27;;;;;;;4.27;100.00;100537.83;1810171;79;20988;-81
2022/10/12 05:33:53;;;;;;;18.77;7.73;;;;;;;4.37;100.00;100532.98;1810504;78;21020;-80
2022/10/12 05:36:20;;;;;;;17.70;6.87;;;;;;;4.45;100.00;100539.07;1810703;79;21018;-80
2022/10/12 05:38:47;;;;;;;17.13;6.20;;;;;;;4.51;100.00;100536.39;1804016;79;21069;-81
2022/10/12 05:41:14;;;;;;;20.53;6.77;;;;;;;4.59;100.00;100536.66;1771793;81;20994;-79
2022/10/12 05:43:43;;;;;;;17.77;5.67;;;;;;;4.72;100.00;100543.23;1769648;81;20994;-75
2022/10/12 05:46:10;;;;;;;19.93;6.03;;;;;;;4.82;100.00;100534.00;1769677;81;21053;-76
2022/10/12 05:48:37;;;;;;;16.20;5.80;;;;;;;4.92;100.00;100536.28;1769221;81;21459;-80
2022/10/12 05:51:04;;;;;;;16.07;5.97;;;;;;;5.04;100.00;100542.50;1769118;81;21080;-82
2022/10/12 05:53:32;;;;;;;154.27;78.47;;;;;;;5.15;100.00;100542.48;1764897;81;21044;-78
2022/10/12 05:55:59;;;;;;;156.77;94.90;;;;;;;5.31;100.00;100541.63;1756789;81;20973;-77
2022/10/12 05:58:28;;;;;;;77.60;37.00;;;;;;;5.51;100.00;100550.70;1756501;81;21047;-77
2022/10/12 06:00:54;;;;;;;41.67;19.00;;;;;;;5.76;100.00;100542.48;1747917;82;21507;-79
2022/10/12 06:03:22;;;;;;;285.70;163.03;;;;;;;6.00;100.00;100546.29;1757812;82;20977;-78
2022/10/12 06:05:50;;;;;;;80.10;43.73;;;;;;;6.25;100.00;100551.30;1756991;82;21045;-79
2022/10/12 06:08:18;;;;;;;42.60;21.43;;;;;;;6.53;100.00;100544.88;1756079;81;21095;-75
2022/10/12 06:10:52;;;;;;;47.40;23.50;;;;;;;6.77;100.00;100547.79;1756398;81;20953;-75
2022/10/12 06:13:19;;;;;;;30.57;13.57;;;;;;;7.00;100.00;100549.30;1756065;82;21044;-77
2022/10/12 06:15:50;;;;;;;32.60;13.23;;;;;;;7.28;100.00;100555.39;1754224;81;21037;-75
2022/10/12 06:18:19;;;;;;;53.08;27.42;;;;;;;7.51;100.00;100570.84;1731716;81;21009;-79
2022/10/12 06:20:52;;;;;;;47.10;23.47;;;;;;;7.74;100.00;100572.30;1749309;81;21277;-76
2022/10/12 06:23:19;;;;;;;36.30;17.32;;;;;;;7.98;100.00;100584.02;1753640;81;21428;-80
2022/10/12 06:25:46;;;;;;;48.97;24.30;;;;;;;8.23;100.00;100588.96;1756502;82;21474;-80
2022/10/12 06:28:14;;;;;;;38.40;17.07;;;;;;;8.45;100.00;100594.59;1755429;81;21036;-79
2022/10/12 06:30:41;;;;;;;35.43;16.40;;;;;;;8.66;100.00;100597.95;1756705;82;20960;-82
2022/10/12 06:33:08;;;;;;;61.07;37.13;;;;;;;8.87;100.00;100601.81;1756811;81;21036;-81
2022/10/12 06:35:36;;;;;;;28.37;13.50;;;;;;;9.11;100.00;100613.43;1756694;81;21083;-82
2022/10/12 06:38:03;;;;;;;20.87;9.20;;;;;;;9.37;100.00;100616.82;1756388;81;21016;-77
2022/10/12 06:40:31;;;;;;;17.97;8.00;;;;;;;9.64;100.00;100630.80;1778957;80;21024;-76
2022/10/12 06:43:01;;;;;;;20.70;7.20;;;;;;;9.96;100.00;100639.44;1792480;79;21073;-78
2022/10/12 06:45:27;;;;;;;21.20;7.23;;;;;;;10.26;100.00;100647.69;1801416;79;21011;-76
2022/10/12 06:47:56;;;;;;;20.65;8.23;;;;;;;10.57;100.00;100649.53;1800854;79;21053;-80
2022/10/12 06:50:23;;;;;;;20.45;7.37;;;;;;;10.89;100.00;100653.97;1802974;78;21042;-79
2022/10/12 06:52:50;;;;;;;18.17;7.50;;;;;;;11.22;100.00;100660.45;1815029;79;21528;-75
2022/10/12 06:55:17;;;;;;;18.95;8.33;;;;;;;11.52;100.00;100669.92;1790429;79;20997;-80
2022/10/12 06:57:43;;;;;;;18.10;6.80;;;;;;;11.78;100.00;100678.00;1779109;81;21003;-81
2022/10/12 07:00:12;;;;;;;16.15;5.87;;;;;;;12.04;100.00;100688.44;1784702;79;20990;-75
2022/10/12 07:02:39;;;;;;;16.70;5.72;;;;;;;12.32;100.00;100695.31;1794211;79;20944;-79
2022/10/12 07:05:07;;;;;;;12.47;4.85;;;;;;;12.50;100.00;100708.73;1802182;79;20986;-78
2022/10/12 07:07:35;;;;;;;20.90;7.15;;;;;;;12.72;100.00;100719.94;1793488;79;21491;-79
2022/10/12 07:10:04;;;;;;;20.82;6.53;;;;;;;13.00;100.00;100728.59;1798327;78;21026;-79
2022/10/12 07:12:30;;;;;;;19.82;6.67;;;;;;;13.25;100.00;100733.50;1789820;79;20990;-77
2022/10/12 07:14:58;;;;;;;33.67;16.00;;;;;;;13.51;100.00;100733.84;1805193;79;20988;-73
2022/10/12 07:17:27;;;;;;;17.62;7.37;;;;;;;13.78;100.00;100735.28;1799231;79;21064;-77
2022/10/12 07:19:54;;;;;;;15.15;5.33;;;;;;;14.02;100.00;100750.66;1790208;79;21051;-74
2022/10/12 07:22:22;;;;;;;15.15;5.75;;;;;;;14.20;100.00;100753.61;1788951;79;20981;-77
2022/10/12 07:24:49;;;;;;;37.58;18.77;;;;;;;14.37;100.00;100753.87;1794611;79;21012;-75
2022/10/12 07:27:16;;;;;;;23.35;10.00;;;;;;;14.60;100.00;100759.37;1783351;79;21011;-79
2022/10/12 07:29:42;;;;;;;14.53;4.87;;;;;;;14.85;100.00;100763.81;1790634;79;21466;-73
2022/10/12 07:32:09;;;;;;;9.75;4.05;;;;;;;15.04;100.00;100765.21;1799048;79;21024;-75
2022/10/12 07:34:36;;;;;;;7.35;3.52;;;;;;;15.18;100.00;100766.61;1781973;79;20957;-79
2022/10/12 07:37:03;;;;;;;6.35;3.80;;;;;;;15.40;100.00;100774.08;1770182;81;21055;-78
2022/10/12 07:39:30;;;;;;;4.92;3.02;;;;;;;15.68;100.00;100777.88;1774398;80;21116;-74
2022/10/12 07:41:58;;;;;;;4.20;3.02;;;;;;;15.81;100.00;100767.74;1764586;79;21045;-80
2022/10/12 07:44:25;;;;;;;4.00;2.30;;;;;;;15.81;100.00;100767.74;1767738;80;21013;-81
2022/10/12 07:46:52;;;;;;;4.22;2.50;;;;;;;15.97;100.00;100769.43;1767477;81;21058;-78
2022/10/12 07:49:21;;;;;;;48.42;24.43;;;;;;;16.17;100.00;100764.23;1767908;81;20982;-79
2022/10/12 07:51:48;;;;;;;15.03;5.25;;;;;;;16.38;100.00;100761.21;1684239;83;21563;-80
2022/10/12 07:54:15;;;;;;;46.85;24.05;;;;;;;16.60;100.00;100755.29;1661715;85;21046;-78
2022/10/12 07:56:45;;;;;;;17.20;8.93;;;;;;;16.83;100.00;100757.34;1630348;87;21109;-77
2022/10/12 07:59:12;;;;;;;6.55;3.92;;;;;;;17.03;100.00;100767.12;1645079;86;21157;-83
2022/10/12 08:01:40;;;;;;;7.37;3.62;;;;;;;17.24;100.00;100760.76;1640309;86;21026;-77
2022/10/12 08:04:08;;;;;;;22.58;11.63;;;;;;;17.42;100.00;100767.13;1644257;86;21042;-78
2022/10/12 08:06:37;;;;;;;97.60;59.77;;;;;;;17.54;100.00;100757.00;1646035;86;21035;-81
2022/10/12 08:09:04;;;;;;;37.60;21.52;;;;;;;17.57;100.00;100765.66;1647854;86;21094;-80
2022/10/12 08:11:31;;;;;;;10.00;5.37;;;;;;;17.73;100.00;100766.39;1648803;87;21098;-76
2022/10/12 08:14:00;;;;;;;8.33;4.65;;;;;;;17.95;100.00;100764.44;1645784;86;21138;-82
2022/10/12 08:16:27;;;;;;;6.28;3.50;;;;;;;18.10;100.00;100769.80;1643558;87;21098;-77
2022/10/12 08:18:54;;;;;;;4.45;3.20;;;;;;;18.27;100.00;100775.76;1644746;86;21011;-81
2022/10/12 08:21:22;;;;;;;5.12;2.92;;;;;;;18.37;100.00;100768.02;1661048;85;21061;-77
2022/10/12 08:23:49;;;;;;;6.65;3.25;;;;;;;18.47;100.00;100768.98;1642435;87;21078;-76
2022/10/12 08:26:16;;;;;;;7.65;3.95;;;;;;;18.47;100.00;100771.72;1652583;85;21141;-85
2022/10/12 08:28:43;;;;;;;5.47;3.27;;;;;;;18.43;100.00;100767.72;1623719;87;21105;-79
2022/10/12 08:31:13;;;;;;;6.17;3.37;;;;;;;18.32;100.00;100776.83;1666550;85;21518;-80
2022/10/12 08:33:41;;;;;;;6.22;3.40;;;;;;;18.32;100.00;100767.78;1650632;87;21042;-81
2022/10/12 08:36:08;;;;;;;10.68;5.15;;;;;;;18.39;100.00;100770.02;1638195;85;20991;-79
2022/10/12 08:38:39;;;;;;;12.82;6.03;;;;;;;18.50;100.00;100760.36;1650657;86;21583;-74
2022/10/12 08:41:33;;;;;;;5.05;2.90;;;;;;;18.73;100.00;100764.11;1654475;85;21051;-83
2022/10/12 08:44:26;;;;;;;6.85;2.98;;;;;;;18.98;100.00;100756.17;1588242;89;21588;-78
2022/10/12 08:47:06;;;;;;;3.42;2.80;;;;;;;19.18;100.00;100763.59;1581822;91;21524;-75
2022/10/12 08:49:35;;;;;;;7.97;4.30;;;;;;;19.28;100.00;100762.13;1646002;85;21051;-80
2022/10/12 08:52:05;;;;;;;10.35;4.17;;;;;;;19.37;100.00;100760.52;1708447;83;21014;-79
2022/10/12 08:54:36;;;;;;;9.05;3.75;;;;;;;19.33;99.24;100758.19;1709351;83;21034;-78
2022/10/12 08:57:03;;;;;;;7.37;3.45;;;;;;;19.29;100.00;100750.08;1707394;84;21022;-83
2022/10/12 08:59:30;;;;;;;9.03;3.55;;;;;;;19.33;94.73;100751.87;1695435;84;21102;-82
2022/10/12 09:02:35;;;;;;;9.03;4.00;;;;;;;19.22;92.17;100753.89;1707760;84;21066;-81
2022/10/12 09:05:10;;;;;;;9.93;3.75;;;;;;;19.18;98.38;100749.36;1707528;84;21050;-82
2022/10/12 09:07:43;;;;;;;10.03;3.80;;;;;;;19.27;99.82;100753.56;1676191;84;21128;-79
2022/10/12 09:10:49;;;;;;;6.22;3.35;;;;;;;19.35;96.93;100745.14;1621595;86;21098;-80
2022/10/12 09:13:39;;;;;;;7.12;3.40;;;;;;;19.36;97.54;100745.97;1603465;87;21052;-81
2022/10/12 09:16:23;;;;;;;9.30;4.95;;;;;;;19.46;99.62;100750.51;1653430;86;21018;-83
2022/10/12 09:18:56;;;;;;;10.23;4.62;;;;;;;19.59;92.55;100740.04;1671202;85;21057;-76
2022/10/12 09:21:25;;;;;;;23.12;13.18;;;;;;;19.65;91.86;100739.70;1638744;87;21090;-83
2022/10/12 09:23:55;;;;;;;31.42;20.70;;;;;;;19.65;88.12;100746.56;1647629;87;21085;-80
2022/10/12 09:26:36;;;;;;;13.10;6.78;;;;;;;19.70;89.85;100731.68;1641826;87;21099;-81
2022/10/12 09:29:23;;;;;;;23.05;11.97;;;;;;;19.81;90.39;100736.53;1619455;89;21099;-83
2022/10/12 09:32:30;;;;;;;10.45;5.28;;;;;;;19.91;86.19;100730.60;1627360;87;21008;-82
2022/10/12 09:34:57;;;;;;;8.00;4.10;;;;;;;19.96;85.47;100729.43;1642666;87;21547;-77
2022/10/12 09:37:29;;;;;;;6.10;3.20;;;;;;;20.07;85.75;100724.63;1626147;87;21032;-78
2022/10/12 09:39:56;;;;;;;4.95;3.25;;;;;;;20.18;82.01;100722.27;1590933;88;21595;-81
2022/10/12 09:42:24;;;;;;;5.45;2.52;;;;;;;20.19;82.36;100711.61;1597151;90;21179;-82
2022/10/12 09:45:01;;;;;;;20.15;4.25;;;;;;;20.32;87.49;100718.39;1597352;89;21096;-77
2022/10/12 09:47:32;;;;;;;6.72;3.33;;;;;;;20.49;85.81;100720.95;1598084;90;21149;-82
2022/10/12 09:50:05;;;;;;;5.70;2.85;;;;;;;20.61;83.17;100717.48;1577797;90;21065;-78
2022/10/12 09:52:40;;;;;;;3.77;2.67;;;;;;;20.75;82.44;100710.03;1583433;91;21099;-80
2022/10/12 09:55:24;;;;;;;5.65;3.02;;;;;;;20.92;82.23;100708.44;1570414;91;21081;-75
2022/10/12 09:57:56;;;;;;;15.08;9.43;;;;;;;21.12;80.28;100713.76;1545917;91;21099;-81
2022/10/12 10:00:28;;;;;;;6.30;3.55;;;;;;;21.07;68.99;100706.75;1526005;93;21672;-77
2022/10/12 10:02:55;;;;;;;68.52;46.88;;;;;;;20.70;67.63;100709.34;1501603;95;21091;-77
2022/10/12 10:05:33;;;;;;;16.62;8.50;;;;;;;20.34;66.65;100701.70;1501606;96;21144;-76
2022/10/12 10:08:21;;;;;;;9.98;4.70;;;;;;;20.16;70.18;100694.19;1547682;92;21109;-84
2022/10/12 10:10:52;;;;;;;8.25;3.77;;;;;;;20.06;71.77;100696.02;1553047;92;21128;-76
2022/10/12 10:13:20;;;;;;;6.67;3.45;;;;;;;19.97;71.24;100693.21;1484079;95;21076;-77
2022/10/12 10:15:53;;;;;;;19.05;8.93;;;;;;;19.89;71.81;100703.38;1482862;97;21711;-82
2022/10/12 10:18:30;;;;;;;11.15;5.37;;;;;;;19.80;72.32;100708.80;1468945;97;21128;-78
2022/10/12 10:21:02;;;;;;;8.65;3.90;;;;;;;19.66;69.13;100702.46;1402224;101;21181;-77
2022/10/12 10:23:44;;;;;;;5.37;3.12;;;;;;;19.35;67.41;100701.77;1404369;101;21081;-76
2022/10/12 10:26:14;;;;;;;19.15;11.20;;;;;;;19.11;69.84;100699.17;1410919;101;21139;-76
2022/10/12 10:28:47;;;;;;;7.10;4.15;;;;;;;19.00;72.36;100690.20;1413350;101;21072;-82
2022/10/12 10:31:23;;;;;;;6.70;3.58;;;;;;;18.95;74.45;100682.09;1377500;103;21073;-82
2022/10/12 10:34:14;;;;;;;8.80;3.30;;;;;;;18.90;75.72;100685.16;1373718;103;21212;-79
2022/10/12 10:36:55;;;;;;;7.62;3.20;;;;;;;18.81;73.28;100683.11;1406308;99;21170;-81
2022/10/12 10:39:28;;;;;;;6.62;3.10;;;;;;;18.82;74.60;100681.23;1436241;99;21117;-74
2022/10/12 10:41:59;;;;;;;6.37;2.93;;;;;;;19.06;80.47;100682.52;1428654;99;21100;-75
2022/10/12 10:44:29;;;;;;;3.20;2.70;;;;;;;19.39;80.14;100681.63;1384404;101;21084;-80
2022/10/12 10:47:08;;;;;;;8.50;4.03;;;;;;;19.61;75.56;100680.31;1398727;102;21115;-79
2022/10/12 10:49:42;;;;;;;6.87;3.40;;;;;;;19.73;79.53;100683.25;1398907;101;21151;-79
2022/10/12 10:52:27;;;;;;;7.20;3.12;;;;;;;19.78;73.83;100671.63;1398727;101;21099;-75
2022/10/12 10:55:14;;;;;;;7.97;3.10;;;;;;;19.82;75.55;100672.91;1386581;101;21063;-77
2022/10/12 10:58:01;;;;;;;5.60;2.75;;;;;;;19.89;71.18;100665.48;1393585;103;21142;-75
2022/10/12 11:00:27;;;;;;;5.22;3.10;;;;;;;19.84;71.73;100663.39;1395703;101;21149;-74
2022/10/12 11:02:56;;;;;;;8.55;3.47;;;;;;;19.94;75.87;100667.05;1380414;102;21531;-76
2022/10/12 11:05:36;;;;;;;6.00;3.50;;;;;;;20.07;76.81;100660.66;1394988;101;21604;-73
2022/10/12 11:08:18;;;;;;;6.28;3.65;;;;;;;20.03;70.75;100668.48;1392951;101;21080;-75
2022/10/12 11:10:56;;;;;;;5.03;3.12;;;;;;;19.65;69.04;100666.47;1414299;101;21545;-74
2022/10/12 11:13:36;;;;;;;4.62;2.80;;;;;;;19.41;71.43;100666.66;1469792;97;21106;-77
2022/10/12 11:16:10;;;;;;;7.25;3.05;;;;;;;19.39;72.03;100663.80;1464754;97;21111;-75
2022/10/12 11:18:48;;;;;;;5.53;2.60;;;;;;;19.41;73.28;100665.83;1530546;93;21614;-73
2022/10/12 11:21:23;;;;;;;13.32;6.90;;;;;;;19.47;75.09;100663.58;1554065;90;21060;-75
2022/10/12 11:23:54;;;;;;;21.25;10.95;;;;;;;19.56;72.77;100660.91;1589046;90;21570;-73
2022/10/12 11:26:44;;;;;;;;;;;;;;;19.55;73.48;100666.10;1575308;91;21569;-74
2022/10/12 11:29:16;;;;;;;4.55;2.77;;;;;;;19.63;73.36;100661.73;1613689;89;20106;-77
2022/10/12 11:32:02;;;;;;;3.75;2.87;;;;;;;19.67;75.53;100661.64;1613660;89;21088;-75
2022/10/12 11:34:31;;;;;;;8.50;3.20;;;;;;;;;;1613359;86;21086;-75
2022/10/12 11:37:02;;;;;;;4.20;2.72;;;;;;;19.90;78.79;100654.80;1613561;89;21029;-78
2022/10/12 11:39:43;;;;;;;3.85;2.67;;;;;;;20.05;78.16;100650.43;1590009;89;21157;-75